sensor_id;sensor_type;location;lat;lon;timestamp;noise_LAeq;noise_LA_min;noise_LA_max;noise_LA01;noise_LA95
67320;Laerm;57665;51.436;5.978;2024-01-15T00:00:02;37.51;36.26;40.52;;
67320;Laerm;57665;51.436;5.978;2024-01-15T00:00:14;37.93;36.20;41.23;;
67320;Laerm;57665;51.436;5.978;2024-01-15T00:00:24;37.59;36.28;38.53;;
67320;Laerm;57665;51.436;5.978;2024-01-15T00:00:35;37.74;36.49;42.45;;
67320;Laerm;57665;51.436;5.978;2024-01-15T00:00:45;37.77;36.23;39.00;;
67320;Laerm;57665;51.436;5.978;2024-01-15T00:00:55;37.64;36.52;39.62;;
67320;Laerm;57665;51.436;5.978;2024-01-15T00:01:06;38.34;37.10;39.82;;
67320;Laerm;57665;51.436;5.978;2024-01-15T00:01:16;38.02;36.68;39.13;;
67320;Laerm;57665;51.436;5.978;2024-01-15T00:01:27;37.73;36.55;39.09;;
67320;Laerm;57665;51.436;5.978;2024-01-15T00:01:41;37.46;36.09;38.88;;
67320;Laerm;57665;51.436;5.978;2024-01-15T00:01:52;37.51;35.65;38.68;;
67320;Laerm;57665;51.436;5.978;2024-01-15T00:02:02;37.58;36.51;38.85;;
67320;Laerm;57665;51.436;5.978;2024-01-15T00:02:13;37.87;36.51;40.98;;
67320;Laerm;57665;51.436;5.978;2024-01-15T00:02:23;38.17;36.82;41.91;;
67320;Laerm;57665;51.436;5.978;2024-01-15T00:02:33;37.29;35.79;38.39;;
67320;Laerm;57665;51.436;5.978;2024-01-15T00:02:44;37.30;35.80;38.57;;
67320;Laerm;57665;51.436;5.978;2024-01-15T00:02:54;37.43;36.14;41.38;;
67320;Laerm;57665;51.436;5.978;2024-01-15T00:03:04;37.07;35.89;38.29;;
67320;Laerm;57665;51.436;5.978;2024-01-15T00:03:15;37.27;35.87;38.63;;
67320;Laerm;57665;51.436;5.978;2024-01-15T00:03:28;37.47;36.07;38.82;;
67320;Laerm;57665;51.436;5.978;2024-01-15T00:03:38;37.39;36.17;38.64;;
67320;Laerm;57665;51.436;5.978;2024-01-15T00:03:49;37.55;36.26;39.10;;
67320;Laerm;57665;51.436;5.978;2024-01-15T00:03:59;37.47;36.19;40.02;;
67320;Laerm;57665;51.436;5.978;2024-01-15T00:04:10;37.71;36.14;38.95;;
67320;Laerm;57665;51.436;5.978;2024-01-15T00:04:20;37.20;35.96;39.34;;
67320;Laerm;57665;51.436;5.978;2024-01-15T00:04:30;37.69;36.39;39.92;;
67320;Laerm;57665;51.436;5.978;2024-01-15T00:04:41;37.28;36.24;38.30;;
67320;Laerm;57665;51.436;5.978;2024-01-15T00:04:51;37.30;36.19;39.00;;
67320;Laerm;57665;51.436;5.978;2024-01-15T00:05:01;37.79;36.35;39.29;;
67320;Laerm;57665;51.436;5.978;2024-01-15T00:05:12;37.66;35.80;38.99;;
67320;Laerm;57665;51.436;5.978;2024-01-15T00:05:30;37.70;36.33;41.29;;
67320;Laerm;57665;51.436;5.978;2024-01-15T00:05:40;37.61;36.33;38.70;;
67320;Laerm;57665;51.436;5.978;2024-01-15T00:05:50;37.43;36.23;38.61;;
67320;Laerm;57665;51.436;5.978;2024-01-15T00:06:00;37.64;36.42;39.17;;
67320;Laerm;57665;51.436;5.978;2024-01-15T00:06:14;37.62;36.09;39.94;;
67320;Laerm;57665;51.436;5.978;2024-01-15T00:06:24;38.02;36.84;39.45;;
67320;Laerm;57665;51.436;5.978;2024-01-15T00:06:34;37.93;36.65;39.46;;
67320;Laerm;57665;51.436;5.978;2024-01-15T00:06:45;37.72;36.47;39.17;;
67320;Laerm;57665;51.436;5.978;2024-01-15T00:06:55;38.08;36.36;40.04;;
67320;Laerm;57665;51.436;5.978;2024-01-15T00:07:05;38.15;36.58;40.54;;
67320;Laerm;57665;51.436;5.978;2024-01-15T00:07:16;38.00;36.41;39.52;;
67320;Laerm;57665;51.436;5.978;2024-01-15T00:07:26;37.56;36.35;38.64;;
67320;Laerm;57665;51.436;5.978;2024-01-15T00:07:36;37.88;36.47;39.60;;
67320;Laerm;57665;51.436;5.978;2024-01-15T00:07:46;38.07;36.68;39.53;;
67320;Laerm;57665;51.436;5.978;2024-01-15T00:07:57;37.87;36.59;39.73;;
67320;Laerm;57665;51.436;5.978;2024-01-15T00:08:07;38.02;36.98;39.77;;
67320;Laerm;57665;51.436;5.978;2024-01-15T00:08:17;37.81;36.41;39.39;;
67320;Laerm;57665;51.436;5.978;2024-01-15T00:08:27;37.58;36.29;38.63;;
67320;Laerm;57665;51.436;5.978;2024-01-15T00:08:38;37.56;36.16;39.27;;
67320;Laerm;57665;51.436;5.978;2024-01-15T00:08:48;37.77;36.23;39.40;;
67320;Laerm;57665;51.436;5.978;2024-01-15T00:08:59;37.62;36.18;40.00;;
67320;Laerm;57665;51.436;5.978;2024-01-15T00:09:09;37.64;36.22;38.79;;
67320;Laerm;57665;51.436;5.978;2024-01-15T00:09:20;37.69;35.92;39.05;;
67320;Laerm;57665;51.436;5.978;2024-01-15T00:09:30;37.52;35.88;39.03;;
67320;Laerm;57665;51.436;5.978;2024-01-15T00:09:40;37.77;36.55;39.04;;
67320;Laerm;57665;51.436;5.978;2024-01-15T00:09:50;38.00;36.58;39.63;;
67320;Laerm;57665;51.436;5.978;2024-01-15T00:10:01;37.61;36.24;39.18;;
67320;Laerm;57665;51.436;5.978;2024-01-15T00:10:11;37.36;36.17;39.17;;
67320;Laerm;57665;51.436;5.978;2024-01-15T00:10:22;37.72;36.48;38.94;;
67320;Laerm;57665;51.436;5.978;2024-01-15T00:10:32;37.36;35.96;38.78;;
67320;Laerm;57665;51.436;5.978;2024-01-15T00:10:42;37.52;36.28;39.13;;
67320;Laerm;57665;51.436;5.978;2024-01-15T00:10:53;37.40;36.36;38.65;;
67320;Laerm;57665;51.436;5.978;2024-01-15T00:11:12;37.35;35.93;38.85;;
67320;Laerm;57665;51.436;5.978;2024-01-15T00:11:22;37.49;36.15;40.97;;
67320;Laerm;57665;51.436;5.978;2024-01-15T00:11:33;37.49;36.19;38.72;;
67320;Laerm;57665;51.436;5.978;2024-01-15T00:11:52;37.41;36.02;38.46;;
67320;Laerm;57665;51.436;5.978;2024-01-15T00:12:02;37.52;35.76;38.69;;
67320;Laerm;57665;51.436;5.978;2024-01-15T00:12:12;37.69;36.49;38.83;;
67320;Laerm;57665;51.436;5.978;2024-01-15T00:12:23;37.76;36.21;39.41;;
67320;Laerm;57665;51.436;5.978;2024-01-15T00:12:33;37.18;36.19;38.28;;
67320;Laerm;57665;51.436;5.978;2024-01-15T00:12:43;37.43;36.21;38.94;;
67320;Laerm;57665;51.436;5.978;2024-01-15T00:12:59;37.63;36.35;38.77;;
67320;Laerm;57665;51.436;5.978;2024-01-15T00:13:10;37.48;36.22;38.85;;
67320;Laerm;57665;51.436;5.978;2024-01-15T00:13:20;37.53;35.88;38.69;;
67320;Laerm;57665;51.436;5.978;2024-01-15T00:13:30;37.24;36.06;38.58;;
67320;Laerm;57665;51.436;5.978;2024-01-15T00:13:41;37.51;36.27;39.34;;
67320;Laerm;57665;51.436;5.978;2024-01-15T00:13:51;37.37;36.04;38.61;;
67320;Laerm;57665;51.436;5.978;2024-01-15T00:14:02;37.74;35.93;39.43;;
67320;Laerm;57665;51.436;5.978;2024-01-15T00:14:22;37.86;36.65;38.95;;
67320;Laerm;57665;51.436;5.978;2024-01-15T00:14:32;37.45;36.18;38.63;;
67320;Laerm;57665;51.436;5.978;2024-01-15T00:14:42;37.48;36.13;38.85;;
67320;Laerm;57665;51.436;5.978;2024-01-15T00:14:53;37.67;35.96;39.27;;
67320;Laerm;57665;51.436;5.978;2024-01-15T00:15:03;39.28;36.81;43.58;;
67320;Laerm;57665;51.436;5.978;2024-01-15T00:15:14;37.44;36.20;38.62;;
67320;Laerm;57665;51.436;5.978;2024-01-15T00:15:31;37.55;36.34;39.60;;
67320;Laerm;57665;51.436;5.978;2024-01-15T00:15:41;37.71;35.99;39.06;;
67320;Laerm;57665;51.436;5.978;2024-01-15T00:15:52;37.58;35.99;38.82;;
67320;Laerm;57665;51.436;5.978;2024-01-15T00:16:02;37.76;36.85;39.26;;
67320;Laerm;57665;51.436;5.978;2024-01-15T00:16:12;38.17;36.53;40.18;;
67320;Laerm;57665;51.436;5.978;2024-01-15T00:16:23;37.74;36.59;41.96;;
67320;Laerm;57665;51.436;5.978;2024-01-15T00:16:33;37.56;36.20;38.83;;
67320;Laerm;57665;51.436;5.978;2024-01-15T00:16:43;38.25;36.80;39.78;;
67320;Laerm;57665;51.436;5.978;2024-01-15T00:16:53;37.59;36.27;39.24;;
67320;Laerm;57665;51.436;5.978;2024-01-15T00:17:05;37.76;36.05;39.76;;
67320;Laerm;57665;51.436;5.978;2024-01-15T00:17:15;37.30;36.16;38.32;;
67320;Laerm;57665;51.436;5.978;2024-01-15T00:17:25;38.11;36.66;39.80;;
67320;Laerm;57665;51.436;5.978;2024-01-15T00:17:45;37.50;35.89;38.99;;
67320;Laerm;57665;51.436;5.978;2024-01-15T00:17:55;37.48;36.25;38.78;;
67320;Laerm;57665;51.436;5.978;2024-01-15T00:18:05;37.47;36.45;38.67;;
67320;Laerm;57665;51.436;5.978;2024-01-15T00:18:16;37.43;36.39;38.64;;
67320;Laerm;57665;51.436;5.978;2024-01-15T00:18:26;37.90;36.25;39.31;;
67320;Laerm;57665;51.436;5.978;2024-01-15T00:18:36;37.77;36.54;38.91;;
67320;Laerm;57665;51.436;5.978;2024-01-15T00:18:47;37.74;36.04;39.36;;
67320;Laerm;57665;51.436;5.978;2024-01-15T00:18:58;37.60;36.28;38.73;;
67320;Laerm;57665;51.436;5.978;2024-01-15T00:19:08;37.37;35.83;39.03;;
67320;Laerm;57665;51.436;5.978;2024-01-15T00:19:18;37.33;35.57;39.23;;
67320;Laerm;57665;51.436;5.978;2024-01-15T00:19:28;37.78;36.40;39.54;;
67320;Laerm;57665;51.436;5.978;2024-01-15T00:19:42;37.48;36.26;38.88;;
67320;Laerm;57665;51.436;5.978;2024-01-15T00:19:52;37.60;36.10;38.92;;
67320;Laerm;57665;51.436;5.978;2024-01-15T00:20:05;37.23;36.19;38.66;;
67320;Laerm;57665;51.436;5.978;2024-01-15T00:20:16;36.83;35.69;38.72;;
67320;Laerm;57665;51.436;5.978;2024-01-15T00:20:26;37.36;36.09;38.63;;
67320;Laerm;57665;51.436;5.978;2024-01-15T00:20:36;37.56;36.14;38.61;;
67320;Laerm;57665;51.436;5.978;2024-01-15T00:20:46;37.17;36.17;38.33;;
67320;Laerm;57665;51.436;5.978;2024-01-15T00:20:56;37.09;35.81;38.10;;
67320;Laerm;57665;51.436;5.978;2024-01-15T00:21:07;37.73;36.41;39.37;;
67320;Laerm;57665;51.436;5.978;2024-01-15T00:21:17;36.80;35.69;38.33;;
67320;Laerm;57665;51.436;5.978;2024-01-15T00:21:27;37.61;36.19;44.48;;
67320;Laerm;57665;51.436;5.978;2024-01-15T00:21:38;37.79;36.59;39.19;;
67320;Laerm;57665;51.436;5.978;2024-01-15T00:21:48;37.98;36.69;39.57;;
67320;Laerm;57665;51.436;5.978;2024-01-15T00:21:58;38.13;36.96;39.39;;
67320;Laerm;57665;51.436;5.978;2024-01-15T00:22:09;37.35;36.12;38.72;;
67320;Laerm;57665;51.436;5.978;2024-01-15T00:22:19;38.10;36.66;43.63;;
67320;Laerm;57665;51.436;5.978;2024-01-15T00:22:29;38.00;36.10;39.40;;
67320;Laerm;57665;51.436;5.978;2024-01-15T00:22:40;37.61;36.27;39.65;;
67320;Laerm;57665;51.436;5.978;2024-01-15T00:22:51;37.28;36.21;38.40;;
67320;Laerm;57665;51.436;5.978;2024-01-15T00:23:01;37.56;36.54;38.83;;
67320;Laerm;57665;51.436;5.978;2024-01-15T00:23:17;37.94;36.52;39.30;;
67320;Laerm;57665;51.436;5.978;2024-01-15T00:23:27;38.50;36.84;40.39;;
67320;Laerm;57665;51.436;5.978;2024-01-15T00:23:41;39.40;37.56;41.10;;
67320;Laerm;57665;51.436;5.978;2024-01-15T00:23:52;62.86;38.98;73.64;;
67320;Laerm;57665;51.436;5.978;2024-01-15T00:24:11;68.40;62.83;74.69;;
67320;Laerm;57665;51.436;5.978;2024-01-15T00:24:22;50.89;36.74;64.05;;
67320;Laerm;57665;51.436;5.978;2024-01-15T00:24:32;37.21;36.17;38.48;;
67320;Laerm;57665;51.436;5.978;2024-01-15T00:24:43;37.34;36.26;39.98;;
67320;Laerm;57665;51.436;5.978;2024-01-15T00:24:53;37.76;36.07;39.49;;
67320;Laerm;57665;51.436;5.978;2024-01-15T00:25:03;37.69;36.38;39.55;;
67320;Laerm;57665;51.436;5.978;2024-01-15T00:25:13;37.64;36.26;39.70;;
67320;Laerm;57665;51.436;5.978;2024-01-15T00:25:24;37.18;35.94;38.62;;
67320;Laerm;57665;51.436;5.978;2024-01-15T00:25:34;37.29;36.19;38.24;;
67320;Laerm;57665;51.436;5.978;2024-01-15T00:25:44;37.29;36.13;39.40;;
67320;Laerm;57665;51.436;5.978;2024-01-15T00:25:54;37.50;36.18;38.97;;
67320;Laerm;57665;51.436;5.978;2024-01-15T00:26:05;37.85;36.57;40.90;;
67320;Laerm;57665;51.436;5.978;2024-01-15T00:26:15;37.82;36.54;39.14;;
67320;Laerm;57665;51.436;5.978;2024-01-15T00:26:25;38.52;37.12;41.41;;
67320;Laerm;57665;51.436;5.978;2024-01-15T00:26:39;38.44;37.28;44.04;;
67320;Laerm;57665;51.436;5.978;2024-01-15T00:26:49;41.86;37.14;47.53;;
67320;Laerm;57665;51.436;5.978;2024-01-15T00:26:59;38.12;37.01;42.10;;
67320;Laerm;57665;51.436;5.978;2024-01-15T00:27:10;38.09;36.71;39.57;;
67320;Laerm;57665;51.436;5.978;2024-01-15T00:27:20;37.72;36.38;38.73;;
67320;Laerm;57665;51.436;5.978;2024-01-15T00:27:30;37.70;36.47;41.92;;
67320;Laerm;57665;51.436;5.978;2024-01-15T00:27:40;37.90;36.59;41.22;;
67320;Laerm;57665;51.436;5.978;2024-01-15T00:27:50;37.34;36.25;38.54;;
67320;Laerm;57665;51.436;5.978;2024-01-15T00:28:01;37.16;36.08;38.28;;
67320;Laerm;57665;51.436;5.978;2024-01-15T00:28:11;37.52;36.58;39.96;;
67320;Laerm;57665;51.436;5.978;2024-01-15T00:28:21;37.21;36.03;38.58;;
67320;Laerm;57665;51.436;5.978;2024-01-15T00:28:31;37.12;35.94;41.55;;
67320;Laerm;57665;51.436;5.978;2024-01-15T00:28:42;37.54;36.39;38.98;;
67320;Laerm;57665;51.436;5.978;2024-01-15T00:28:52;37.89;36.73;39.22;;
67320;Laerm;57665;51.436;5.978;2024-01-15T00:29:11;37.74;36.45;39.29;;
67320;Laerm;57665;51.436;5.978;2024-01-15T00:29:21;37.89;36.36;40.74;;
67320;Laerm;57665;51.436;5.978;2024-01-15T00:29:31;37.59;36.37;40.08;;
67320;Laerm;57665;51.436;5.978;2024-01-15T00:29:48;37.96;36.47;39.05;;
67320;Laerm;57665;51.436;5.978;2024-01-15T00:29:58;37.86;36.40;40.25;;
67320;Laerm;57665;51.436;5.978;2024-01-15T00:30:08;38.22;37.04;39.96;;
67320;Laerm;57665;51.436;5.978;2024-01-15T00:30:25;37.85;36.57;40.04;;
67320;Laerm;57665;51.436;5.978;2024-01-15T00:30:35;38.09;36.75;40.87;;
67320;Laerm;57665;51.436;5.978;2024-01-15T00:30:45;38.03;36.69;43.49;;
67320;Laerm;57665;51.436;5.978;2024-01-15T00:30:56;38.13;37.28;39.30;;
67320;Laerm;57665;51.436;5.978;2024-01-15T00:31:06;38.70;36.79;43.74;;
67320;Laerm;57665;51.436;5.978;2024-01-15T00:31:19;38.00;36.51;39.53;;
67320;Laerm;57665;51.436;5.978;2024-01-15T00:31:29;38.10;36.81;41.92;;
67320;Laerm;57665;51.436;5.978;2024-01-15T00:31:40;37.74;36.42;39.20;;
67320;Laerm;57665;51.436;5.978;2024-01-15T00:31:56;37.79;36.26;39.88;;
67320;Laerm;57665;51.436;5.978;2024-01-15T00:32:06;37.72;35.92;38.88;;
67320;Laerm;57665;51.436;5.978;2024-01-15T00:32:16;38.07;36.43;39.95;;
67320;Laerm;57665;51.436;5.978;2024-01-15T00:32:27;37.59;36.59;39.84;;
67320;Laerm;57665;51.436;5.978;2024-01-15T00:32:40;37.94;36.35;41.75;;
67320;Laerm;57665;51.436;5.978;2024-01-15T00:32:50;38.56;36.64;39.89;;
67320;Laerm;57665;51.436;5.978;2024-01-15T00:33:09;39.06;36.99;40.78;;
67320;Laerm;57665;51.436;5.978;2024-01-15T00:33:22;58.61;37.15;69.92;;
67320;Laerm;57665;51.436;5.978;2024-01-15T00:33:32;65.72;61.48;71.51;;
67320;Laerm;57665;51.436;5.978;2024-01-15T00:33:45;67.05;44.98;75.86;;
67320;Laerm;57665;51.436;5.978;2024-01-15T00:33:56;39.76;36.78;46.84;;
67320;Laerm;57665;51.436;5.978;2024-01-15T00:34:07;38.40;36.70;40.72;;
67320;Laerm;57665;51.436;5.978;2024-01-15T00:34:17;37.94;36.35;39.84;;
67320;Laerm;57665;51.436;5.978;2024-01-15T00:34:28;37.71;36.12;39.91;;
67320;Laerm;57665;51.436;5.978;2024-01-15T00:34:38;37.89;36.68;39.25;;
67320;Laerm;57665;51.436;5.978;2024-01-15T00:34:48;37.88;36.32;39.57;;
67320;Laerm;57665;51.436;5.978;2024-01-15T00:34:58;37.88;36.19;39.09;;
67320;Laerm;57665;51.436;5.978;2024-01-15T00:35:08;37.95;36.65;39.13;;
67320;Laerm;57665;51.436;5.978;2024-01-15T00:35:19;37.93;36.47;39.22;;
67320;Laerm;57665;51.436;5.978;2024-01-15T00:35:29;37.83;36.78;40.04;;
67320;Laerm;57665;51.436;5.978;2024-01-15T00:35:39;37.77;36.58;38.93;;
67320;Laerm;57665;51.436;5.978;2024-01-15T00:36:14;37.98;36.55;39.64;;
67320;Laerm;57665;51.436;5.978;2024-01-15T00:36:26;38.04;36.82;39.91;;
67320;Laerm;57665;51.436;5.978;2024-01-15T00:36:40;37.43;36.37;38.53;;
67320;Laerm;57665;51.436;5.978;2024-01-15T00:36:50;37.53;36.08;38.60;;
67320;Laerm;57665;51.436;5.978;2024-01-15T00:37:09;38.20;36.51;43.32;;
67320;Laerm;57665;51.436;5.978;2024-01-15T00:37:19;37.55;36.04;38.96;;
67320;Laerm;57665;51.436;5.978;2024-01-15T00:37:29;37.43;36.19;39.50;;
67320;Laerm;57665;51.436;5.978;2024-01-15T00:37:40;37.63;36.05;38.96;;
67320;Laerm;57665;51.436;5.978;2024-01-15T00:37:59;37.65;36.05;45.84;;
67320;Laerm;57665;51.436;5.978;2024-01-15T00:38:09;37.17;35.93;38.06;;
67320;Laerm;57665;51.436;5.978;2024-01-15T00:38:20;37.59;36.18;39.33;;
67320;Laerm;57665;51.436;5.978;2024-01-15T00:38:30;37.71;36.12;45.31;;
67320;Laerm;57665;51.436;5.978;2024-01-15T00:38:40;37.37;36.10;39.61;;
67320;Laerm;57665;51.436;5.978;2024-01-15T00:38:51;37.49;36.25;38.79;;
67320;Laerm;57665;51.436;5.978;2024-01-15T00:39:01;37.43;35.77;38.87;;
67320;Laerm;57665;51.436;5.978;2024-01-15T00:39:11;37.39;36.01;38.45;;
67320;Laerm;57665;51.436;5.978;2024-01-15T00:39:22;37.33;36.20;38.49;;
67320;Laerm;57665;51.436;5.978;2024-01-15T00:39:32;37.42;36.20;38.58;;
67320;Laerm;57665;51.436;5.978;2024-01-15T00:39:43;37.62;36.36;39.00;;
67320;Laerm;57665;51.436;5.978;2024-01-15T00:39:53;37.68;36.43;38.87;;
67320;Laerm;57665;51.436;5.978;2024-01-15T00:40:06;37.78;36.60;39.41;;
67320;Laerm;57665;51.436;5.978;2024-01-15T00:40:17;37.29;36.02;38.71;;
67320;Laerm;57665;51.436;5.978;2024-01-15T00:40:28;37.75;36.43;39.12;;
67320;Laerm;57665;51.436;5.978;2024-01-15T00:40:38;37.88;36.75;39.75;;
67320;Laerm;57665;51.436;5.978;2024-01-15T00:40:51;37.54;35.88;39.23;;
67320;Laerm;57665;51.436;5.978;2024-01-15T00:41:01;37.57;36.15;38.92;;
67320;Laerm;57665;51.436;5.978;2024-01-15T00:41:13;37.50;36.18;39.94;;
67320;Laerm;57665;51.436;5.978;2024-01-15T00:41:23;37.10;35.81;38.81;;
67320;Laerm;57665;51.436;5.978;2024-01-15T00:41:33;37.78;36.13;39.20;;
67320;Laerm;57665;51.436;5.978;2024-01-15T00:41:44;37.73;36.59;38.98;;
67320;Laerm;57665;51.436;5.978;2024-01-15T00:41:54;37.54;35.87;40.65;;
67320;Laerm;57665;51.436;5.978;2024-01-15T00:42:04;37.55;36.18;39.53;;
67320;Laerm;57665;51.436;5.978;2024-01-15T00:42:14;37.73;36.18;50.20;;
67320;Laerm;57665;51.436;5.978;2024-01-15T00:42:25;37.50;36.24;39.38;;
67320;Laerm;57665;51.436;5.978;2024-01-15T00:42:35;37.76;36.28;40.15;;
67320;Laerm;57665;51.436;5.978;2024-01-15T00:42:45;37.45;36.06;38.88;;
67320;Laerm;57665;51.436;5.978;2024-01-15T00:42:55;37.22;36.10;40.73;;
67320;Laerm;57665;51.436;5.978;2024-01-15T00:43:06;37.67;35.77;39.66;;
67320;Laerm;57665;51.436;5.978;2024-01-15T00:43:25;37.51;35.90;39.48;;
67320;Laerm;57665;51.436;5.978;2024-01-15T00:43:35;37.75;36.76;39.21;;
67320;Laerm;57665;51.436;5.978;2024-01-15T00:43:46;37.26;35.96;38.31;;
67320;Laerm;57665;51.436;5.978;2024-01-15T00:44:05;37.27;35.86;38.75;;
67320;Laerm;57665;51.436;5.978;2024-01-15T00:44:15;37.23;35.93;38.98;;
67320;Laerm;57665;51.436;5.978;2024-01-15T00:44:26;37.10;35.94;38.18;;
67320;Laerm;57665;51.436;5.978;2024-01-15T00:44:46;37.48;35.95;38.63;;
67320;Laerm;57665;51.436;5.978;2024-01-15T00:44:56;37.21;35.61;39.04;;
67320;Laerm;57665;51.436;5.978;2024-01-15T00:45:06;37.60;35.95;39.25;;
67320;Laerm;57665;51.436;5.978;2024-01-15T00:45:17;37.66;36.38;38.91;;
67320;Laerm;57665;51.436;5.978;2024-01-15T00:45:28;37.53;36.41;40.84;;
67320;Laerm;57665;51.436;5.978;2024-01-15T00:45:38;37.64;36.19;39.91;;
67320;Laerm;57665;51.436;5.978;2024-01-15T00:45:48;37.82;36.47;39.14;;
67320;Laerm;57665;51.436;5.978;2024-01-15T00:46:01;37.27;36.00;39.07;;
67320;Laerm;57665;51.436;5.978;2024-01-15T00:46:12;37.61;36.52;38.88;;
67320;Laerm;57665;51.436;5.978;2024-01-15T00:46:22;37.59;36.22;40.54;;
67320;Laerm;57665;51.436;5.978;2024-01-15T00:46:42;37.51;36.11;39.50;;
67320;Laerm;57665;51.436;5.978;2024-01-15T00:46:53;37.49;35.89;38.79;;
67320;Laerm;57665;51.436;5.978;2024-01-15T00:47:04;37.07;35.76;38.10;;
67320;Laerm;57665;51.436;5.978;2024-01-15T00:47:14;37.36;36.22;38.40;;
67320;Laerm;57665;51.436;5.978;2024-01-15T00:47:24;37.45;36.42;38.64;;
67320;Laerm;57665;51.436;5.978;2024-01-15T00:47:34;37.32;36.06;38.35;;
67320;Laerm;57665;51.436;5.978;2024-01-15T00:47:45;37.34;36.18;38.46;;
67320;Laerm;57665;51.436;5.978;2024-01-15T00:47:58;37.62;36.26;38.96;;
67320;Laerm;57665;51.436;5.978;2024-01-15T00:48:11;37.87;36.27;39.72;;
67320;Laerm;57665;51.436;5.978;2024-01-15T00:48:21;37.97;36.82;39.22;;
67320;Laerm;57665;51.436;5.978;2024-01-15T00:48:31;37.82;36.64;39.36;;
67320;Laerm;57665;51.436;5.978;2024-01-15T00:48:42;37.24;35.94;38.87;;
67320;Laerm;57665;51.436;5.978;2024-01-15T00:48:52;37.26;36.03;38.95;;
67320;Laerm;57665;51.436;5.978;2024-01-15T00:49:02;37.47;36.07;39.03;;
67320;Laerm;57665;51.436;5.978;2024-01-15T00:49:13;37.34;36.16;38.28;;
67320;Laerm;57665;51.436;5.978;2024-01-15T00:49:23;37.32;36.08;38.43;;
67320;Laerm;57665;51.436;5.978;2024-01-15T00:49:34;37.23;36.18;38.34;;
67320;Laerm;57665;51.436;5.978;2024-01-15T00:49:44;37.23;36.02;38.58;;
67320;Laerm;57665;51.436;5.978;2024-01-15T00:49:55;36.73;35.47;38.23;;
67320;Laerm;57665;51.436;5.978;2024-01-15T00:50:05;37.40;36.32;39.07;;
67320;Laerm;57665;51.436;5.978;2024-01-15T00:50:15;37.51;36.33;38.75;;
67320;Laerm;57665;51.436;5.978;2024-01-15T00:50:29;37.39;36.02;40.66;;
67320;Laerm;57665;51.436;5.978;2024-01-15T00:50:39;37.29;35.88;38.74;;
67320;Laerm;57665;51.436;5.978;2024-01-15T00:50:49;37.34;36.18;38.61;;
67320;Laerm;57665;51.436;5.978;2024-01-15T00:50:59;37.59;36.36;39.27;;
67320;Laerm;57665;51.436;5.978;2024-01-15T00:51:09;37.49;36.29;38.73;;
67320;Laerm;57665;51.436;5.978;2024-01-15T00:51:20;37.50;36.56;38.59;;
67320;Laerm;57665;51.436;5.978;2024-01-15T00:51:33;37.33;36.23;38.62;;
67320;Laerm;57665;51.436;5.978;2024-01-15T00:51:43;37.62;35.96;39.83;;
67320;Laerm;57665;51.436;5.978;2024-01-15T00:51:54;37.69;36.57;40.11;;
67320;Laerm;57665;51.436;5.978;2024-01-15T00:52:04;38.06;36.62;39.27;;
67320;Laerm;57665;51.436;5.978;2024-01-15T00:52:14;37.41;36.36;39.23;;
67320;Laerm;57665;51.436;5.978;2024-01-15T00:52:25;37.87;36.22;39.35;;
67320;Laerm;57665;51.436;5.978;2024-01-15T00:52:35;37.78;36.20;41.99;;
67320;Laerm;57665;51.436;5.978;2024-01-15T00:52:45;37.66;36.05;39.65;;
67320;Laerm;57665;51.436;5.978;2024-01-15T00:52:56;37.58;36.33;38.93;;
67320;Laerm;57665;51.436;5.978;2024-01-15T00:53:06;37.58;36.30;38.65;;
67320;Laerm;57665;51.436;5.978;2024-01-15T00:53:16;37.76;36.26;39.06;;
67320;Laerm;57665;51.436;5.978;2024-01-15T00:53:26;37.60;36.21;40.50;;
67320;Laerm;57665;51.436;5.978;2024-01-15T00:53:37;67.61;37.54;77.23;;
67320;Laerm;57665;51.436;5.978;2024-01-15T00:53:47;69.46;66.61;71.83;;
67320;Laerm;57665;51.436;5.978;2024-01-15T00:53:58;68.86;62.29;74.32;;
67320;Laerm;57665;51.436;5.978;2024-01-15T00:54:08;63.63;60.82;69.05;;
67320;Laerm;57665;51.436;5.978;2024-01-15T00:54:27;54.93;36.68;64.95;;
67320;Laerm;57665;51.436;5.978;2024-01-15T00:54:37;37.64;36.38;39.07;;
67320;Laerm;57665;51.436;5.978;2024-01-15T00:54:49;37.05;35.51;44.20;;
67320;Laerm;57665;51.436;5.978;2024-01-15T00:54:59;37.55;35.58;38.66;;
67320;Laerm;57665;51.436;5.978;2024-01-15T00:55:09;37.13;35.80;38.31;;
67320;Laerm;57665;51.436;5.978;2024-01-15T00:55:20;37.23;35.85;38.55;;
67320;Laerm;57665;51.436;5.978;2024-01-15T00:55:30;37.41;35.97;46.51;;
67320;Laerm;57665;51.436;5.978;2024-01-15T00:55:40;37.71;36.25;39.20;;
67320;Laerm;57665;51.436;5.978;2024-01-15T00:55:50;37.55;36.19;38.97;;
67320;Laerm;57665;51.436;5.978;2024-01-15T00:56:01;37.25;36.12;38.29;;
67320;Laerm;57665;51.436;5.978;2024-01-15T00:56:12;37.09;35.97;38.06;;
67320;Laerm;57665;51.436;5.978;2024-01-15T00:56:22;37.58;36.09;38.87;;
67320;Laerm;57665;51.436;5.978;2024-01-15T00:56:32;37.55;36.22;39.06;;
67320;Laerm;57665;51.436;5.978;2024-01-15T00:56:43;43.54;37.52;50.06;;
67320;Laerm;57665;51.436;5.978;2024-01-15T00:56:53;42.33;38.35;46.21;;
67320;Laerm;57665;51.436;5.978;2024-01-15T00:57:04;38.64;36.98;42.47;;
67320;Laerm;57665;51.436;5.978;2024-01-15T00:57:15;38.29;36.75;41.51;;
67320;Laerm;57665;51.436;5.978;2024-01-15T00:57:25;37.87;36.33;39.42;;
67320;Laerm;57665;51.436;5.978;2024-01-15T00:57:35;37.92;36.75;39.37;;
67320;Laerm;57665;51.436;5.978;2024-01-15T00:57:45;37.70;36.41;38.97;;
67320;Laerm;57665;51.436;5.978;2024-01-15T00:57:57;37.80;36.38;39.15;;
67320;Laerm;57665;51.436;5.978;2024-01-15T00:58:07;37.57;36.10;38.64;;
67320;Laerm;57665;51.436;5.978;2024-01-15T00:58:18;37.32;36.21;38.93;;
67320;Laerm;57665;51.436;5.978;2024-01-15T00:58:28;37.66;36.26;46.22;;
67320;Laerm;57665;51.436;5.978;2024-01-15T00:58:39;37.32;35.56;39.26;;
67320;Laerm;57665;51.436;5.978;2024-01-15T00:58:52;37.18;35.62;39.73;;
67320;Laerm;57665;51.436;5.978;2024-01-15T00:59:02;37.73;36.14;39.17;;
67320;Laerm;57665;51.436;5.978;2024-01-15T00:59:12;37.66;36.52;38.98;;
67320;Laerm;57665;51.436;5.978;2024-01-15T00:59:25;37.64;36.39;39.01;;
67320;Laerm;57665;51.436;5.978;2024-01-15T00:59:35;37.65;36.15;39.39;;
67320;Laerm;57665;51.436;5.978;2024-01-15T00:59:45;38.43;36.90;43.47;;
67320;Laerm;57665;51.436;5.978;2024-01-15T00:59:55;39.65;37.34;42.76;;
67320;Laerm;57665;51.436;5.978;2024-01-15T01:00:06;45.89;38.89;52.43;;
67320;Laerm;57665;51.436;5.978;2024-01-15T01:00:16;43.91;37.27;53.16;;
67320;Laerm;57665;51.436;5.978;2024-01-15T01:00:27;37.97;36.59;39.19;;
67320;Laerm;57665;51.436;5.978;2024-01-15T01:00:37;37.20;35.94;41.54;;
67320;Laerm;57665;51.436;5.978;2024-01-15T01:00:47;37.28;35.97;39.19;;
67320;Laerm;57665;51.436;5.978;2024-01-15T01:00:57;37.70;35.92;46.02;;
67320;Laerm;57665;51.436;5.978;2024-01-15T01:01:08;37.44;35.72;39.54;;
67320;Laerm;57665;51.436;5.978;2024-01-15T01:01:18;37.97;36.31;47.90;;
67320;Laerm;57665;51.436;5.978;2024-01-15T01:01:28;37.38;36.24;39.44;;
67320;Laerm;57665;51.436;5.978;2024-01-15T01:01:39;37.23;35.76;38.88;;
67320;Laerm;57665;51.436;5.978;2024-01-15T01:01:52;37.56;36.09;38.96;;
67320;Laerm;57665;51.436;5.978;2024-01-15T01:02:03;37.66;36.01;41.40;;
67320;Laerm;57665;51.436;5.978;2024-01-15T01:02:13;37.54;36.36;38.81;;